Terminal Aerodrome Forecast
Issued by NWS Flagstaff, AZ

Home | Current Version | Previous Version | Text Only | Print | Product List | Glossary On
Versions: 1 2 3 4 5 6 7 8 9 10 11 12 13 14
131
FTUS45 KFGZ 191528 AAA
TAFINW
TAF AMD
KINW 191528Z 1915/2012 19011KT P6SM SCT060 OVC100
     FM191730 20015G20KT P6SM BKN050 OVC090
     FM200100 20013G17KT P6SM -SHRA OVC040=

USA.gov is the U.S. government's official web portal to all federal, state and local government web resources and services.